Ashland, New York
Current Conditions -  °F | °C
As of 7:51 AM on Wednesday 22 Oct 2014 (Local Time) from KALB Reporting Station
Overcast Overcast  
Wind Chill: 50°   Ceiling: 2800
Heat Index: 50°   Visibility: 10mi
Dew Point: 45°   Wind: 12mph
Humidity: 83%   Direction: 10°N
Pressure: 30.07"   Gusts: NA
Location:  42.3°N, 74.33°W
Report Text: KALB 221151Z 01010KT 10SM SCT011 OVC028 10/07 A3007 RMK AO2 SLP182 SCT V BKN 70042 T01000072 10100 20100 53014
Loading
Personal Weather Stations






























Interactive Weather Map New forecast layout! Learn more

10-Day Weather Forecast

Advertisements
Track Severe Weather on mobile